createdAt,value
2022-11-30T00:00:11.573Z,45.00
2022-11-30T00:02:39.751Z,52.87
2022-11-30T00:05:08.803Z,46.30
2022-11-30T00:07:37.202Z,44.33
2022-11-30T00:10:06.664Z,47.50
2022-11-30T00:12:35.152Z,45.50
2022-11-30T00:15:05.710Z,46.40
2022-11-30T00:17:34.031Z,54.57
2022-11-30T00:20:02.443Z,50.47
2022-11-30T00:22:30.692Z,49.07
2022-11-30T00:25:00.262Z,50.13
2022-11-30T00:27:29.161Z,55.73
2022-11-30T00:29:57.441Z,54.50
2022-11-30T00:32:27.402Z,54.83
2022-11-30T00:34:55.842Z,57.30
2022-11-30T00:37:24.166Z,49.83
2022-11-30T00:39:52.352Z,54.23
2022-11-30T00:42:20.523Z,56.13
2022-11-30T00:44:48.891Z,58.17
2022-11-30T00:47:17.160Z,69.00
2022-11-30T00:49:46.759Z,60.20
2022-11-30T00:52:15.003Z,67.00
2022-11-30T00:54:43.207Z,55.00
2022-11-30T00:57:11.584Z,61.90
2022-11-30T00:59:39.812Z,57.27
2022-11-30T01:02:08.054Z,54.73
2022-11-30T01:04:36.340Z,62.00
2022-11-30T01:07:06.044Z,68.27
2022-11-30T01:09:34.280Z,67.07
2022-11-30T01:12:02.411Z,74.70
2022-11-30T01:14:30.620Z,71.73
2022-11-30T01:16:58.816Z,65.23
2022-11-30T01:19:27.049Z,75.13
2022-11-30T01:21:55.290Z,87.70
2022-11-30T01:24:24.836Z,74.50
2022-11-30T01:26:53.307Z,71.40
2022-11-30T01:29:21.446Z,76.70
2022-11-30T01:31:49.691Z,77.13
2022-11-30T01:34:17.920Z,78.77
2022-11-30T01:36:46.328Z,77.03
2022-11-30T01:39:14.468Z,80.40
2022-11-30T01:41:44.016Z,62.83
2022-11-30T01:44:49.781Z,68.87
2022-11-30T01:47:20.881Z,76.97
2022-11-30T01:49:53.490Z,67.00
2022-11-30T01:52:24.348Z,65.00
2022-11-30T01:54:56.175Z,80.23
2022-11-30T01:57:31.095Z,70.57
2022-11-30T02:00:02.308Z,69.10
2022-11-30T02:02:39.054Z,65.90
2022-11-30T02:05:08.221Z,69.27
2022-11-30T02:07:36.691Z,74.80
2022-11-30T02:10:05.555Z,71.90
2022-11-30T02:12:45.961Z,75.43
2022-11-30T02:15:22.333Z,88.83
2022-11-30T02:17:59.090Z,66.23
2022-11-30T02:20:42.579Z,83.83
2022-11-30T02:23:35.344Z,70.00
2022-11-30T02:26:18.566Z,69.23
2022-11-30T02:29:07.072Z,80.60
2022-11-30T02:31:42.842Z,80.83
2022-11-30T02:34:15.063Z,82.17
2022-11-30T02:36:47.367Z,76.27
2022-11-30T02:39:16.937Z,88.50
2022-11-30T02:41:45.119Z,84.17
2022-11-30T02:44:15.659Z,95.70
2022-11-30T02:46:58.502Z,96.87
2022-11-30T02:49:33.562Z,92.60
2022-11-30T02:52:03.619Z,98.37
2022-11-30T02:54:31.852Z,85.57
2022-11-30T02:57:00.192Z,92.67
2022-11-30T02:59:30.185Z,82.87
2022-11-30T03:01:58.599Z,75.73
2022-11-30T03:04:26.857Z,76.73
2022-11-30T03:06:55.059Z,71.47
2022-11-30T03:09:23.219Z,81.10
2022-11-30T03:11:51.429Z,72.67
2022-11-30T03:14:19.620Z,71.83
2022-11-30T03:16:49.158Z,70.07
2022-11-30T03:19:17.370Z,65.17
2022-11-30T03:21:46.594Z,78.97
2022-11-30T03:24:15.769Z,65.93
2022-11-30T03:26:44.011Z,74.00
2022-11-30T03:29:12.427Z,64.30
2022-11-30T03:31:40.670Z,70.33
2022-11-30T03:34:10.284Z,67.90
2022-11-30T03:36:38.515Z,63.93
2022-11-30T03:39:07.003Z,56.43
2022-11-30T03:41:36.251Z,59.93
2022-11-30T03:44:04.398Z,78.33
2022-11-30T03:46:34.090Z,65.53
2022-11-30T03:49:02.728Z,66.67
2022-11-30T03:51:32.801Z,60.73
2022-11-30T03:54:01.366Z,68.23
2022-11-30T03:56:30.253Z,73.20
2022-11-30T03:58:58.596Z,66.77
2022-11-30T04:01:28.010Z,71.70
2022-11-30T04:03:56.306Z,71.40
2022-11-30T04:06:24.657Z,74.23
2022-11-30T04:08:54.509Z,65.37
2022-11-30T04:11:22.803Z,76.37
2022-11-30T04:13:50.946Z,83.90
2022-11-30T04:16:19.189Z,96.57
2022-11-30T04:18:48.582Z,88.77
2022-11-30T04:21:16.820Z,99.33
2022-11-30T04:23:44.972Z,88.10
2022-11-30T04:26:16.458Z,90.37
2022-11-30T04:28:45.149Z,88.87
2022-11-30T04:31:14.002Z,99.53
2022-11-30T04:33:42.212Z,114.17
2022-11-30T04:36:18.829Z,112.93
2022-11-30T04:38:47.417Z,112.13
2022-11-30T04:41:17.534Z,90.07
2022-11-30T04:43:45.772Z,106.77
2022-11-30T04:46:14.019Z,128.37
2022-11-30T04:48:42.231Z,107.27
2022-11-30T04:51:10.547Z,113.80
2022-11-30T04:53:39.583Z,112.43
2022-11-30T04:56:08.791Z,94.97
2022-11-30T04:58:39.154Z,102.13
2022-11-30T05:01:07.562Z,107.50
2022-11-30T05:03:36.084Z,93.70
2022-11-30T05:06:04.899Z,101.30
2022-11-30T05:08:33.123Z,87.17
2022-11-30T05:11:01.309Z,92.30
2022-11-30T05:13:30.739Z,97.57
2022-11-30T05:16:00.398Z,90.73
2022-11-30T05:18:31.628Z,83.30
2022-11-30T05:20:59.840Z,82.37
2022-11-30T05:23:28.104Z,68.90
2022-11-30T05:25:56.295Z,65.97
2022-11-30T05:28:24.519Z,68.10
2022-11-30T05:30:52.708Z,56.37
2022-11-30T05:33:22.527Z,64.53
2022-11-30T05:35:50.719Z,60.50
2022-11-30T05:38:19.218Z,57.37
2022-11-30T05:40:47.516Z,54.40
2022-11-30T05:43:15.753Z,70.17
2022-11-30T05:45:44.295Z,57.50
2022-11-30T05:48:12.509Z,61.80
2022-11-30T05:50:42.069Z,60.43
2022-11-30T05:53:11.346Z,80.17
2022-11-30T05:55:39.558Z,81.40
2022-11-30T05:58:07.864Z,77.30
2022-11-30T06:00:36.105Z,81.83
2022-11-30T06:03:04.548Z,86.43
2022-11-30T06:05:36.462Z,110.27
2022-11-30T06:08:06.429Z,84.07
2022-11-30T06:10:34.673Z,98.93
2022-11-30T06:13:08.004Z,94.23
2022-11-30T06:15:37.577Z,83.10
2022-11-30T06:18:06.723Z,91.97
2022-11-30T06:20:35.786Z,76.70
2022-11-30T06:23:06.617Z,87.30
2022-11-30T06:25:34.772Z,93.77
2022-11-30T06:28:03.209Z,82.07
2022-11-30T06:30:31.360Z,70.17
2022-11-30T06:32:59.571Z,84.93
2022-11-30T06:35:27.919Z,68.30
2022-11-30T06:37:56.179Z,64.23
2022-11-30T06:40:25.724Z,62.90
2022-11-30T06:42:54.418Z,67.17
2022-11-30T06:45:22.680Z,56.37
2022-11-30T06:47:50.859Z,61.13
2022-11-30T06:50:19.155Z,59.60
2022-11-30T06:52:47.387Z,53.20
2022-11-30T06:55:15.656Z,50.47
2022-11-30T06:57:45.490Z,51.47
2022-11-30T07:00:15.061Z,51.93
2022-11-30T07:02:43.406Z,51.67
2022-11-30T07:05:11.793Z,49.10
2022-11-30T07:07:41.172Z,44.70
2022-11-30T07:10:10.563Z,45.13
2022-11-30T07:12:38.807Z,37.50
2022-11-30T07:15:09.967Z,42.40
2022-11-30T07:17:38.259Z,40.57
2022-11-30T07:20:08.268Z,39.73
2022-11-30T07:22:36.466Z,40.73
2022-11-30T07:25:22.662Z,40.07
2022-11-30T07:27:50.926Z,41.77
2022-11-30T07:30:20.858Z,37.70
2022-11-30T07:32:48.993Z,42.37
2022-11-30T07:35:17.195Z,36.33
2022-11-30T07:37:45.502Z,38.50
2022-11-30T07:40:14.416Z,40.07
2022-11-30T07:42:42.747Z,40.23
2022-11-30T07:45:12.079Z,42.23
2022-11-30T07:47:42.814Z,39.53
2022-11-30T07:50:12.123Z,39.60
2022-11-30T07:52:40.287Z,42.63
2022-11-30T07:55:10.138Z,41.87
2022-11-30T07:57:38.383Z,34.07
2022-11-30T08:00:08.858Z,35.00
2022-11-30T08:02:37.252Z,32.50
2022-11-30T08:05:11.480Z,33.23
2022-11-30T08:07:39.804Z,30.00
2022-11-30T08:10:09.387Z,34.00
2022-11-30T08:12:37.597Z,32.83
2022-11-30T08:15:28.910Z,30.97
2022-11-30T08:17:56.013Z,35.57
2022-11-30T08:20:25.594Z,32.30
2022-11-30T08:22:53.951Z,35.63
2022-11-30T08:25:23.456Z,37.93
2022-11-30T08:27:51.730Z,35.20
2022-11-30T08:30:20.164Z,31.17
2022-11-30T08:32:48.808Z,38.10
2022-11-30T08:35:17.161Z,38.93
2022-11-30T08:37:46.749Z,41.90
2022-11-30T08:40:15.364Z,36.00
2022-11-30T08:42:43.557Z,37.90
2022-11-30T08:45:12.496Z,31.30
2022-11-30T08:47:40.769Z,31.33
2022-11-30T08:50:10.064Z,30.73
2022-11-30T08:52:38.230Z,34.23
2022-11-30T08:55:09.600Z,33.43
2022-11-30T08:57:37.791Z,35.93
2022-11-30T09:00:07.525Z,34.53
2022-11-30T09:02:35.761Z,34.93
2022-11-30T09:05:04.079Z,37.50
2022-11-30T09:07:32.397Z,37.20
2022-11-30T09:10:00.629Z,37.70
2022-11-30T09:12:30.207Z,34.43
2022-11-30T09:14:59.072Z,38.70
2022-11-30T09:17:27.534Z,36.30
2022-11-30T09:19:55.982Z,34.97
2022-11-30T09:22:24.348Z,36.87
2022-11-30T09:24:52.574Z,36.53
2022-11-30T09:27:21.263Z,33.57
2022-11-30T09:29:50.748Z,34.40
2022-11-30T09:32:18.906Z,35.70
2022-11-30T09:34:50.154Z,37.00
2022-11-30T09:37:18.995Z,37.83
2022-11-30T09:39:47.184Z,36.10
2022-11-30T09:42:44.820Z,37.53
2022-11-30T09:45:20.224Z,38.60
2022-11-30T09:48:22.287Z,44.20
2022-11-30T09:50:51.680Z,38.93
2022-11-30T09:53:29.435Z,36.10
2022-11-30T09:55:59.815Z,35.20
2022-11-30T09:58:38.165Z,37.70
2022-11-30T10:01:17.310Z,40.53
2022-11-30T10:03:45.753Z,40.57
2022-11-30T10:06:23.645Z,39.70
2022-11-30T10:09:03.474Z,44.10
2022-11-30T10:11:45.137Z,39.90
2022-11-30T10:14:45.856Z,39.90
2022-11-30T10:17:30.469Z,37.77
2022-11-30T10:20:17.108Z,38.03
2022-11-30T10:23:04.472Z,37.50
2022-11-30T10:25:44.562Z,42.77
2022-11-30T10:28:45.466Z,39.40
2022-11-30T10:31:10.316Z,41.70
2022-11-30T10:33:46.506Z,40.50
2022-11-30T10:36:21.690Z,39.20
2022-11-30T10:38:53.633Z,42.93
2022-11-30T10:41:25.832Z,40.53
2022-11-30T10:44:00.967Z,41.20
2022-11-30T10:46:32.021Z,44.10
2022-11-30T10:49:05.983Z,47.30
2022-11-30T10:51:36.765Z,42.00
2022-11-30T10:54:14.473Z,48.50
2022-11-30T10:56:42.844Z,50.97
2022-11-30T10:59:17.997Z,48.77
2022-11-30T11:01:46.415Z,50.37
2022-11-30T11:04:22.454Z,48.70
2022-11-30T11:06:53.644Z,51.33
2022-11-30T11:09:32.393Z,48.03
2022-11-30T11:12:02.080Z,49.70
2022-11-30T11:14:36.284Z,43.23
2022-11-30T11:17:08.062Z,53.80
2022-11-30T11:19:41.566Z,51.97
2022-11-30T11:22:18.423Z,53.77
2022-11-30T11:24:47.622Z,49.57
2022-11-30T11:27:28.072Z,54.27
2022-11-30T11:30:03.109Z,53.40
2022-11-30T11:32:32.013Z,52.97
2022-11-30T11:35:02.040Z,55.87
2022-11-30T11:37:33.274Z,56.17
2022-11-30T11:40:15.351Z,51.60
2022-11-30T11:42:48.188Z,53.47
2022-11-30T11:45:20.962Z,55.93
2022-11-30T11:47:59.643Z,49.93
2022-11-30T11:53:25.077Z,61.00
2022-11-30T11:55:58.403Z,63.93
2022-11-30T11:58:37.085Z,57.40
2022-11-30T12:01:38.505Z,53.83
2022-11-30T12:04:13.219Z,60.47
2022-11-30T12:06:45.589Z,56.83
2022-11-30T12:09:18.705Z,64.03
2022-11-30T12:11:48.681Z,63.97
2022-11-30T12:14:19.283Z,61.43
2022-11-30T12:17:02.426Z,59.13
2022-11-30T12:19:38.093Z,58.20
2022-11-30T12:22:20.862Z,66.10
2022-11-30T12:25:05.763Z,63.77
2022-11-30T12:27:46.868Z,69.67
2022-11-30T12:30:24.515Z,55.97
2022-11-30T12:33:16.380Z,60.13
2022-11-30T12:35:57.380Z,55.47
2022-11-30T12:38:41.706Z,59.80
2022-11-30T12:41:35.163Z,65.73
2022-11-30T12:44:28.526Z,59.20
2022-11-30T12:47:06.477Z,61.03
2022-11-30T12:49:53.326Z,63.67
2022-11-30T12:52:34.530Z,62.43
2022-11-30T12:55:15.401Z,60.67
2022-11-30T12:57:50.096Z,65.07
2022-11-30T13:00:22.150Z,63.47
2022-11-30T13:03:19.340Z,59.67
2022-11-30T13:05:52.473Z,61.37
2022-11-30T13:08:26.936Z,66.03
2022-11-30T13:11:00.301Z,65.70
2022-11-30T13:13:33.375Z,64.97
2022-11-30T13:16:07.029Z,72.00
2022-11-30T13:18:36.675Z,66.77
2022-11-30T13:21:10.358Z,65.63
2022-11-30T13:23:44.601Z,65.03
2022-11-30T13:26:24.888Z,63.60
2022-11-30T13:29:07.031Z,65.90
2022-11-30T13:31:39.727Z,63.50
2022-11-30T13:34:24.755Z,61.97
2022-11-30T13:37:01.636Z,61.97
2022-11-30T13:47:30.792Z,60.07
2022-11-30T13:50:21.430Z,60.73
2022-11-30T13:53:36.407Z,64.77
2022-11-30T14:01:49.809Z,51.47
2022-11-30T14:07:46.815Z,56.90
2022-11-30T14:10:29.380Z,60.13
2022-11-30T14:13:00.970Z,56.17
2022-11-30T14:15:51.596Z,56.37
2022-11-30T14:18:38.474Z,59.53
2022-11-30T14:21:25.128Z,57.10
2022-11-30T14:24:00.831Z,60.40
2022-11-30T14:26:32.927Z,62.70
2022-11-30T14:29:11.918Z,55.80
2022-11-30T14:31:49.613Z,63.43
2022-11-30T14:34:21.797Z,52.77
2022-11-30T14:36:53.788Z,53.93
2022-11-30T14:39:28.980Z,68.73
2022-11-30T14:41:58.439Z,58.30
2022-11-30T14:44:29.130Z,51.57
2022-11-30T14:46:59.427Z,50.67
2022-11-30T14:49:27.805Z,53.30
2022-11-30T14:52:01.820Z,54.90
2022-11-30T14:54:49.534Z,52.67
2022-11-30T14:57:25.842Z,48.67
2022-11-30T14:59:57.067Z,49.20
2022-11-30T15:02:33.618Z,50.90
2022-11-30T15:05:02.619Z,51.73
2022-11-30T15:07:32.114Z,54.30
2022-11-30T15:10:05.937Z,47.13
2022-11-30T15:12:35.395Z,47.80
2022-11-30T15:15:19.265Z,49.67
2022-11-30T15:17:59.266Z,54.97
2022-11-30T15:20:30.956Z,45.40
2022-11-30T15:23:01.113Z,47.87
2022-11-30T15:25:38.439Z,49.33
2022-11-30T15:28:07.891Z,56.33
2022-11-30T15:30:41.634Z,49.17
2022-11-30T15:33:19.245Z,50.23
2022-11-30T15:36:15.905Z,47.53
2022-11-30T15:38:39.689Z,45.77
2022-11-30T15:41:20.207Z,50.03
2022-11-30T15:43:53.428Z,49.57
2022-11-30T15:46:33.498Z,51.23
2022-11-30T15:49:24.417Z,52.17
2022-11-30T15:52:09.252Z,52.37
2022-11-30T15:54:56.589Z,52.37
2022-11-30T15:57:28.441Z,45.13
2022-11-30T16:00:20.408Z,43.17
2022-11-30T16:02:49.135Z,43.50
2022-11-30T16:05:25.998Z,46.43
2022-11-30T16:07:57.190Z,54.83
2022-11-30T16:10:29.800Z,51.73
2022-11-30T16:12:59.543Z,50.03
2022-11-30T16:15:29.604Z,46.67
2022-11-30T16:18:01.048Z,50.97
2022-11-30T16:20:30.766Z,50.03
2022-11-30T16:23:05.344Z,47.33
2022-11-30T16:25:35.405Z,46.50
2022-11-30T16:28:05.437Z,48.37
2022-11-30T16:30:34.902Z,50.30
2022-11-30T16:33:04.443Z,46.57
2022-11-30T16:35:38.424Z,47.77
2022-11-30T16:38:12.677Z,46.33
2022-11-30T16:40:40.953Z,43.50
2022-11-30T16:43:13.281Z,47.17
2022-11-30T16:45:43.841Z,47.47
2022-11-30T16:48:12.441Z,48.13
2022-11-30T16:50:42.089Z,49.27
2022-11-30T16:53:14.990Z,51.37
2022-11-30T16:55:45.697Z,46.63
2022-11-30T16:58:15.498Z,50.43
2022-11-30T17:00:44.969Z,45.33
2022-11-30T17:03:21.597Z,50.43
2022-11-30T17:05:52.361Z,45.63
2022-11-30T17:08:22.888Z,45.00
2022-11-30T17:10:52.977Z,46.83
2022-11-30T17:13:22.868Z,46.07
2022-11-30T17:15:51.583Z,44.40
2022-11-30T17:18:19.879Z,43.27
2022-11-30T17:20:48.653Z,38.27
2022-11-30T17:23:19.979Z,44.87
2022-11-30T17:25:49.383Z,42.27
2022-11-30T17:28:17.874Z,43.13
2022-11-30T17:30:48.795Z,35.03
2022-11-30T17:33:17.142Z,38.60
2022-11-30T17:35:46.423Z,38.10
2022-11-30T17:38:14.956Z,36.77
2022-11-30T17:40:45.100Z,37.77
2022-11-30T17:43:13.394Z,44.30
2022-11-30T17:45:49.260Z,38.80
2022-11-30T17:48:17.659Z,35.30
2022-11-30T17:50:46.240Z,37.27
2022-11-30T17:53:18.291Z,40.60
2022-11-30T17:55:47.523Z,33.10
2022-11-30T17:58:15.834Z,35.60
2022-11-30T18:00:44.193Z,31.77
2022-11-30T18:03:18.738Z,33.77
2022-11-30T18:05:50.007Z,35.17
2022-11-30T18:08:19.619Z,34.07
2022-11-30T18:10:55.889Z,36.30
2022-11-30T18:13:24.431Z,38.00
2022-11-30T18:15:53.823Z,39.40
2022-11-30T18:18:24.640Z,34.50
2022-11-30T18:20:52.971Z,38.20
2022-11-30T18:23:23.271Z,35.80
2022-11-30T18:25:51.558Z,33.03
2022-11-30T18:28:19.806Z,38.97
2022-11-30T18:30:53.737Z,42.87
2022-11-30T18:33:25.609Z,40.33
2022-11-30T18:35:58.976Z,35.10
2022-11-30T18:38:37.950Z,36.63
2022-11-30T18:41:07.869Z,35.73
2022-11-30T18:43:39.061Z,37.03
2022-11-30T18:46:08.917Z,37.97
2022-11-30T18:48:39.717Z,35.03
2022-11-30T18:51:12.961Z,36.37
2022-11-30T18:53:43.021Z,33.93
2022-11-30T18:56:15.918Z,36.07
2022-11-30T18:58:46.328Z,37.37
2022-11-30T19:01:16.471Z,34.73
2022-11-30T19:03:51.467Z,35.17
2022-11-30T19:06:21.367Z,36.87
2022-11-30T19:08:55.915Z,36.80
2022-11-30T19:11:24.536Z,34.53
2022-11-30T19:13:55.383Z,30.40
2022-11-30T19:16:24.486Z,29.73
2022-11-30T19:18:55.011Z,28.63
2022-11-30T19:21:24.667Z,28.43
2022-11-30T19:23:53.135Z,32.37
2022-11-30T19:26:22.450Z,26.80
2022-11-30T19:28:54.810Z,25.53
2022-11-30T19:31:24.091Z,27.80
2022-11-30T19:33:56.135Z,28.83
2022-11-30T19:36:27.462Z,31.33
2022-11-30T19:38:58.798Z,26.33
2022-11-30T19:41:27.909Z,26.40
2022-11-30T19:44:03.706Z,27.20
2022-11-30T19:46:34.503Z,24.43
2022-11-30T19:49:04.865Z,26.60
2022-11-30T19:51:33.293Z,31.30
2022-11-30T19:54:02.113Z,31.27
2022-11-30T19:56:32.183Z,33.43
2022-11-30T19:59:05.577Z,30.83
2022-11-30T20:01:35.538Z,29.40
2022-11-30T20:04:06.145Z,30.07
2022-11-30T20:06:37.624Z,27.30
2022-11-30T20:09:09.275Z,29.17
2022-11-30T20:11:40.107Z,37.10
2022-11-30T20:14:08.462Z,28.70
2022-11-30T20:16:37.907Z,27.37
2022-11-30T20:19:08.607Z,27.03
2022-11-30T20:21:37.980Z,34.33
2022-11-30T20:24:09.634Z,27.57
2022-11-30T20:26:40.204Z,27.03
2022-11-30T20:29:14.047Z,30.80
2022-11-30T20:31:45.785Z,27.33
2022-11-30T20:34:16.655Z,26.13
2022-11-30T20:36:45.308Z,29.33
2022-11-30T20:39:14.905Z,26.40
2022-11-30T20:41:50.273Z,31.47
2022-11-30T20:44:19.751Z,25.77
2022-11-30T20:46:48.118Z,27.70
2022-11-30T20:49:21.420Z,28.20
2022-11-30T20:51:50.163Z,27.33
2022-11-30T20:54:19.243Z,30.10
2022-11-30T20:56:51.185Z,25.97
2022-11-30T20:59:24.052Z,20.93
2022-11-30T21:01:52.651Z,22.37
2022-11-30T21:04:23.363Z,26.80
2022-11-30T21:06:52.035Z,25.60
2022-11-30T21:09:21.360Z,31.23
2022-11-30T21:11:50.176Z,21.43
2022-11-30T21:14:18.827Z,19.90
2022-11-30T21:16:47.605Z,21.00
2022-11-30T21:19:17.150Z,21.13
2022-11-30T21:21:49.204Z,23.07
2022-11-30T21:24:17.628Z,19.07
2022-11-30T21:26:46.022Z,23.40
2022-11-30T21:29:18.074Z,23.10
2022-11-30T21:31:46.922Z,21.37
2022-11-30T21:34:16.429Z,24.53
2022-11-30T21:36:48.874Z,21.73
2022-11-30T21:39:21.293Z,21.00
2022-11-30T21:41:49.683Z,17.90
2022-11-30T21:44:18.631Z,24.77
2022-11-30T21:46:48.218Z,21.17
2022-11-30T21:49:18.046Z,20.07
2022-11-30T21:51:48.621Z,22.50
2022-11-30T21:54:17.887Z,16.80
2022-11-30T21:56:46.271Z,18.70
2022-11-30T21:59:15.658Z,20.17
2022-11-30T22:01:44.762Z,19.47
2022-11-30T22:04:16.638Z,17.67
2022-11-30T22:06:49.659Z,18.37
2022-11-30T22:09:18.876Z,19.37
2022-11-30T22:11:48.770Z,18.60
2022-11-30T22:14:18.123Z,21.93
2022-11-30T22:16:48.627Z,22.00
2022-11-30T22:19:17.981Z,26.70
2022-11-30T22:21:50.450Z,23.97
2022-11-30T22:24:20.162Z,18.90
2022-11-30T22:26:49.842Z,18.07
2022-11-30T22:29:20.754Z,17.90
2022-11-30T22:31:52.691Z,15.83
2022-11-30T22:34:21.273Z,20.73
2022-11-30T22:36:51.140Z,17.27
2022-11-30T22:39:22.264Z,16.10
2022-11-30T22:41:55.677Z,20.50
2022-11-30T22:44:26.358Z,16.63
2022-11-30T22:46:56.168Z,17.33
2022-11-30T22:49:24.963Z,19.00
2022-11-30T22:51:55.077Z,21.70
2022-11-30T22:54:23.431Z,20.20
2022-11-30T22:56:52.047Z,22.13
2022-11-30T22:59:20.479Z,19.30
2022-11-30T23:01:51.539Z,20.93
2022-11-30T23:04:22.879Z,19.40
2022-11-30T23:06:51.714Z,17.13
2022-11-30T23:09:23.375Z,14.37
2022-11-30T23:11:52.378Z,16.47
2022-11-30T23:14:25.775Z,20.60
2022-11-30T23:16:54.453Z,19.23
2022-11-30T23:19:23.325Z,19.70
2022-11-30T23:21:52.011Z,16.87
2022-11-30T23:24:22.640Z,20.50
2022-11-30T23:26:51.532Z,20.53
2022-11-30T23:29:20.978Z,16.73
2022-11-30T23:31:50.474Z,20.67
2022-11-30T23:34:31.578Z,17.23
2022-11-30T23:37:31.615Z,17.10
2022-11-30T23:40:04.183Z,19.93
2022-11-30T23:42:32.961Z,15.63
2022-11-30T23:45:05.547Z,20.50
2022-11-30T23:47:34.037Z,18.30
2022-11-30T23:50:03.696Z,15.70
2022-11-30T23:52:33.135Z,15.37
2022-11-30T23:55:03.925Z,16.40
2022-11-30T23:57:33.248Z,16.93
